Columbus Metropolitan Airport
KCSG : rendu visible

Aérodrome :











RETROUVEZ-NOUS SUR...

 
LOGIN :

S'inscrire | Disclaimer

   EN    FR    IT 

 









Légende :    VFR   VFR Marginal   IFR   IFR Intensif   IFR Très Intensif
Visi : 
Plafond : 
>= 8 km
>= 3000ft
5 à 8 km
1000 à 3000 ft
1500m à 5 km
500 à 1000 ft
800 à 1500m
200 à 500 ft
< 800m
< 200 ft
Symboles :   Orages  Brouillard  Fortes neiges  Fortes précipitations  Vent > 20 kt






- Altitude de l'aérodrome : 397 ft
- Code IATA : CSG


KCSG - Columbus Metropolitan

DERNIER METAR :
  • 312051Z 01005KT 10SM FEW065 31/14 A3002 RMK AO2 SLP162 T03110144 58012

METARs EXPIRÉS :
  • 311951Z 06004KT 10SM CLR 31/14 A3004 RMK AO2 SLP166 T03110139
  • 311851Z 01007KT 10SM CLR 31/13 A3005 RMK AO2 SLP170 T03110133
  • 311751Z VRB03KT 10SM CLR 30/13 A3006 RMK AO2 SLP173 T03000133 10306 20211 58006

TAF KCSG
Valide du 31 à 18h jusqu'au 01 à 18h UTC


311731Z 3118/0118 02008KT P6SM FEW050
FM010000 05005KT P6SM FEW250
FM011000 07007KT P6SM FEW250
FM011600 09010KT P6SM FEW050
FIR KZTL / Amérique du Nord



MET'MAP, la Météo Aéronautique d'un coup d'oeil ! - Copyright ORBIFLY Décembre 2007 - Disclaimer

ORBIFLY MET'MAP TEAM :

Programmation & Développement : Alexandra Zaïnal
Sur une idée originale de : Baudouin d'Aumeries
Assistance à la programmation : Marc-Olivier Méhu
Soutien technique & logistique : Manuel Goepfert

Contact : metmap@orbifly.com




SOURCES & CREDITS :

   NOAA       Earth
Advisory